Trigg Furnace, Kentucky
Current Conditions -  °F | °C
As of 5:58 AM on Sunday 21 Dec 2014 (Local Time) from KHOP Reporting Station
Clear Clear  
Wind Chill: 26°   Ceiling: Unl
Heat Index: 26°   Visibility: 10mi
Dew Point: 23°   Wind: 3mph
Humidity: 89%   Direction: 50°NE
Pressure: 30.25"   Gusts: NA
Location:  36.8031°N, 87.8159°W
Report Text: KHOP 211158Z AUTO 05003KT 10SM CLR M04/M05 A3025 RMK AO2 SLP251 T10361051 11014 21039 55006
Loading
Personal Weather Stations






























Interactive Weather Map New forecast layout! Learn more

10-Day Weather Forecast

Advertisements
Track Severe Weather on mobile